Time;durP1;ratioP1;P1;durP2;ratioP2;P2;SDS_P1;SDS_P2;PMS_P1;PMS_P2;Temp;Humidity;BMP_temperature;BMP_pressure;BME280_temperature;BME280_humidity;BME280_pressure;Samples;Min_cycle;Max_cycle;Signal;HPM_P1;HPM_P2
2022/08/02 00:00:30;;;;;;;9.18;5.25;;;;;;;23.39;54.26;99081.53;5084771;28;20060;-68
2022/08/02 00:02:57;;;;;;;9.05;6.18;;;;;;;23.39;54.28;99093.19;5084486;28;20056;-67
2022/08/02 00:05:25;;;;;;;6.05;4.70;;;;;;;23.41;53.97;99088.47;5084707;28;20056;-68
2022/08/02 00:07:52;;;;;;;9.50;5.85;;;;;;;23.50;53.66;99081.16;5084618;28;20056;-68
2022/08/02 00:10:20;;;;;;;22.00;10.30;;;;;;;23.53;53.03;99097.88;5083389;28;20110;-68
2022/08/02 00:12:47;;;;;;;14.20;8.48;;;;;;;23.42;52.83;99070.38;5085001;28;20106;-68
2022/08/02 00:15:15;;;;;;;7.65;4.70;;;;;;;23.50;52.60;99087.41;5067438;28;20216;-67
2022/08/02 00:17:42;;;;;;;5.68;3.65;;;;;;;23.39;52.91;99065.31;5084286;28;20067;-67
2022/08/02 00:20:11;;;;;;;3.53;2.55;;;;;;;23.02;52.96;99005.38;5084371;28;20057;-68
2022/08/02 00:22:38;;;;;;;5.32;3.22;;;;;;;23.52;52.80;99092.66;5088158;28;20082;-68
2022/08/02 00:25:06;;;;;;;5.60;3.78;;;;;;;23.52;52.37;99090.78;5087795;28;20117;-67
2022/08/02 00:27:35;;;;;;;5.13;3.08;;;;;;;23.52;52.45;99106.19;5088246;28;20057;-67
2022/08/02 00:30:03;;;;;;;6.13;3.35;;;;;;;23.47;52.30;99109.41;5087914;28;20052;-68
2022/08/02 00:32:30;;;;;;;3.80;2.47;;;;;;;23.40;52.36;99105.69;5088252;28;20312;-67
2022/08/02 00:34:57;;;;;;;4.57;3.33;;;;;;;23.37;52.90;99103.34;5088507;28;20048;-67
2022/08/02 00:37:25;;;;;;;8.10;7.22;;;;;;;23.38;53.05;99106.88;5087719;28;20087;-68
2022/08/02 00:39:52;;;;;;;10.35;9.00;;;;;;;23.22;53.24;99094.22;5088153;28;20289;-67
2022/08/02 00:42:20;;;;;;;5.50;4.22;;;;;;;23.24;53.50;99116.50;5087916;28;20166;-67
2022/08/02 00:44:49;;;;;;;4.57;3.20;;;;;;;23.23;53.35;99114.81;5087403;28;20105;-67
2022/08/02 00:47:16;;;;;;;6.15;4.15;;;;;;;23.24;53.50;99120.06;5070386;28;20045;-68
2022/08/02 00:49:43;;;;;;;4.57;3.00;;;;;;;23.17;53.37;99126.31;5087219;28;20070;-67
2022/08/02 00:56:11;;;;;;;4.82;3.13;;;;;;;23.14;53.55;99121.25;5088204;28;20091;-67
2022/08/02 00:58:38;;;;;;;3.25;2.10;;;;;;;23.14;53.37;99130.22;5087421;28;20064;-67
2022/08/02 01:01:06;;;;;;;2.80;1.80;;;;;;;23.03;53.67;99123.28;5087936;28;20251;-67
2022/08/02 01:03:34;;;;;;;2.78;1.85;;;;;;;22.94;53.31;99104.53;5087571;28;20374;-67
2022/08/02 01:06:01;;;;;;;2.92;2.03;;;;;;;22.77;53.24;99092.91;5087459;28;20193;-67
2022/08/02 01:08:28;;;;;;;2.60;1.70;;;;;;;23.09;52.50;99137.13;5087546;28;20110;-67
2022/08/02 01:10:55;;;;;;;1.90;1.30;;;;;;;22.95;52.32;99117.03;5087740;28;20109;-67
2022/08/02 01:13:23;;;;;;;4.55;1.75;;;;;;;23.04;51.92;99141.19;5087724;28;20056;-67
2022/08/02 01:15:58;;;;;;;3.50;2.58;;;;;;;23.06;51.72;99149.13;5070236;28;20111;-68
2022/08/02 01:18:32;;;;;;;4.57;3.45;;;;;;;23.00;51.81;99149.81;5087836;28;20052;-67
2022/08/02 01:21:29;;;;;;;5.38;4.25;;;;;;;22.95;52.08;99150.31;5087253;28;20056;-67
2022/08/02 01:24:09;;;;;;;4.32;2.97;;;;;;;22.91;52.14;99154.38;5086898;28;20056;-68
2022/08/02 01:26:42;;;;;;;5.35;3.78;;;;;;;22.84;52.60;99147.09;5086777;28;20083;-67
2022/08/02 01:29:17;;;;;;;4.65;3.88;;;;;;;22.82;52.68;99158.06;5086810;28;20052;-68
2022/08/02 01:31:50;;;;;;;3.97;2.70;;;;;;;22.82;52.52;99155.38;5087183;28;20062;-68
2022/08/02 01:34:22;;;;;;;5.47;2.42;;;;;;;22.51;51.89;99100.28;5086218;28;20118;-68
2022/08/02 01:36:55;;;;;;;2.78;1.70;;;;;;;22.53;51.28;99114.44;5086873;28;20064;-68
2022/08/02 01:39:27;;;;;;;2.30;1.42;;;;;;;22.91;51.46;99167.03;5086794;28;20106;-68
2022/08/02 01:41:57;;;;;;;2.30;1.65;;;;;;;22.64;51.16;99133.91;5086778;28;20057;-68
2022/08/02 01:44:28;;;;;;;2.78;1.83;;;;;;;22.87;51.46;99165.69;5086586;28;20053;-68
2022/08/02 01:46:58;;;;;;;2.58;1.52;;;;;;;22.83;51.26;99154.38;5086364;28;20053;-68
2022/08/02 01:49:29;;;;;;;2.40;1.50;;;;;;;22.31;51.13;99070.84;5086347;28;20068;-68
2022/08/02 01:54:45;;;;;;;4.70;2.72;;;;;;;22.33;51.12;99094.97;5086984;28;20062;-68
2022/08/02 01:57:14;;;;;;;3.85;2.58;;;;;;;22.75;50.95;99150.81;5086506;28;20057;-68
2022/08/02 01:59:45;;;;;;;5.50;4.78;;;;;;;22.64;50.85;99139.31;5086105;28;20382;-68
2022/08/02 02:02:16;;;;;;;5.55;4.15;;;;;;;22.73;51.38;99146.41;5086139;28;20053;-67
2022/08/02 02:04:46;;;;;;;4.38;3.13;;;;;;;22.70;51.20;99140.50;5085887;28;20319;-67
2022/08/02 02:07:15;;;;;;;4.65;3.58;;;;;;;22.74;51.31;99136.44;5086120;28;20056;-68
2022/08/02 02:09:44;;;;;;;4.22;2.95;;;;;;;22.63;51.68;99151.13;5086233;28;20101;-67
2022/08/02 02:12:14;;;;;;;4.10;2.70;;;;;;;22.58;51.91;99131.03;5086025;28;20048;-68
2022/08/02 02:14:44;;;;;;;3.85;2.20;;;;;;;21.98;51.69;99025.91;5086084;28;20078;-68
2022/08/02 02:17:13;;;;;;;3.05;1.90;;;;;;;22.65;51.05;99140.16;5086386;28;20110;-68
2022/08/02 02:19:42;;;;;;;2.65;1.35;;;;;;;22.55;51.51;99126.81;5068479;28;20060;-67
2022/08/02 02:22:09;;;;;;;3.00;1.80;;;;;;;22.66;51.35;99141.84;5085849;28;20082;-67
2022/08/02 02:24:36;;;;;;;4.50;3.30;;;;;;;22.51;51.06;99122.72;5084849;28;20110;-68
2022/08/02 02:27:07;;;;;;;5.80;4.40;;;;;;;22.54;50.95;99124.25;5085820;28;20317;-68
2022/08/02 02:29:37;;;;;;;4.53;3.22;;;;;;;22.63;50.74;99153.84;5085865;28;20056;-68
2022/08/02 02:32:06;;;;;;;5.50;4.30;;;;;;;22.65;50.90;99142.84;5085793;28;20259;-68
2022/08/02 02:34:37;;;;;;;4.30;3.15;;;;;;;22.67;50.67;99146.25;5085829;28;20122;-67
2022/08/02 02:37:08;;;;;;;4.32;2.65;;;;;;;22.62;50.66;99141.34;5085817;28;20052;-67
2022/08/02 02:39:37;;;;;;;3.00;1.90;;;;;;;22.61;50.80;99145.03;5085666;28;20194;-67
2022/08/02 02:42:08;;;;;;;2.08;1.40;;;;;;;22.61;50.82;99144.19;5085257;28;20105;-67
2022/08/02 02:44:38;;;;;;;2.72;1.40;;;;;;;22.59;50.99;99146.22;5085178;28;20106;-68
2022/08/02 02:47:10;;;;;;;2.40;1.50;;;;;;;22.56;50.89;99150.09;5085423;28;20378;-68
2022/08/02 02:49:39;;;;;;;2.50;1.60;;;;;;;22.59;50.70;99146.22;5085196;28;20110;-68
2022/08/02 02:52:07;;;;;;;2.35;1.58;;;;;;;22.53;51.16;99155.81;5085583;28;20370;-68
2022/08/02 02:54:37;;;;;;;2.45;1.70;;;;;;;22.52;51.21;99150.56;5085779;28;20076;-68
2022/08/02 02:57:06;;;;;;;2.10;1.27;;;;;;;22.52;51.37;99151.41;5085532;28;20053;-67
2022/08/02 02:59:34;;;;;;;2.40;1.45;;;;;;;22.44;51.71;99148.69;5085621;28;20105;-68
2022/08/02 03:02:03;;;;;;;2.00;1.30;;;;;;;22.41;51.77;99155.28;5085430;28;20060;-68
2022/08/02 03:04:32;;;;;;;3.67;1.60;;;;;;;22.44;52.02;99153.25;5085804;28;20078;-67
2022/08/02 03:07:00;;;;;;;2.33;1.42;;;;;;;22.39;52.38;99151.00;5084955;28;20060;-68
2022/08/02 03:09:28;;;;;;;3.10;1.60;;;;;;;22.30;52.89;99143.91;5085291;28;20082;-68
2022/08/02 03:11:55;;;;;;;2.40;1.52;;;;;;;22.27;52.89;99136.13;5085143;28;20060;-68
2022/08/02 03:14:23;;;;;;;3.15;1.95;;;;;;;22.33;52.52;99138.16;5085480;28;20308;-67
2022/08/02 03:16:53;;;;;;;2.70;1.45;;;;;;;22.37;52.76;99142.22;5085244;28;20259;-68
2022/08/02 03:19:22;;;;;;;2.60;1.70;;;;;;;22.30;53.10;99144.75;5085546;28;20117;-68
2022/08/02 03:21:53;;;;;;;2.30;1.58;;;;;;;22.36;53.16;99143.25;5085307;28;20122;-67
2022/08/02 03:24:20;;;;;;;2.88;1.75;;;;;;;22.22;53.27;99124.97;5085597;28;20112;-67
2022/08/02 03:26:48;;;;;;;4.35;1.85;;;;;;;22.38;52.76;99147.47;5085178;28;20251;-67
2022/08/02 03:29:15;;;;;;;2.67;2.05;;;;;;;22.40;52.91;99145.47;5085193;28;20064;-67
2022/08/02 03:31:45;;;;;;;3.15;1.70;;;;;;;22.25;53.45;99133.59;5084805;28;20060;-67
2022/08/02 03:34:13;;;;;;;4.55;3.50;;;;;;;22.34;53.53;99156.06;5085058;28;20113;-68
2022/08/02 03:36:42;;;;;;;7.78;5.95;;;;;;;22.20;53.58;99135.94;5084967;28;20048;-68
2022/08/02 03:39:12;;;;;;;6.20;5.10;;;;;;;22.32;54.24;99160.78;5085156;28;20056;-68
2022/08/02 03:41:41;;;;;;;7.68;6.32;;;;;;;22.28;53.67;99165.66;5085056;28;20056;-67
2022/08/02 03:44:10;;;;;;;7.35;5.63;;;;;;;22.34;53.69;99173.09;5084887;28;20064;-67
2022/08/02 03:46:39;;;;;;;6.63;4.70;;;;;;;22.34;53.81;99181.19;5084805;28;20358;-68
2022/08/02 03:49:08;;;;;;;4.50;2.97;;;;;;;21.89;54.21;99122.16;5084565;28;20251;-68
2022/08/02 03:51:36;;;;;;;5.25;2.38;;;;;;;22.36;53.96;99179.19;5085035;28;20053;-68
2022/08/02 03:54:03;;;;;;;6.20;3.28;;;;;;;22.34;54.11;99180.34;5084682;28;20366;-67
2022/08/02 03:56:32;;;;;;;4.85;4.25;;;;;;;22.32;53.86;99180.53;5086399;28;20060;-68
2022/08/02 03:59:07;;;;;;;3.88;3.08;;;;;;;21.99;53.80;99147.16;5088536;28;20114;-68
2022/08/02 04:01:34;;;;;;;5.13;3.95;;;;;;;22.25;53.51;99198.38;5088431;28;20102;-68
2022/08/02 04:04:01;;;;;;;3.72;2.63;;;;;;;22.13;53.25;99191.59;5088597;28;20177;-67
2022/08/02 04:06:28;;;;;;;4.03;2.65;;;;;;;21.59;53.31;99114.56;5088402;28;20119;-68
2022/08/02 04:08:56;;;;;;;6.50;3.83;;;;;;;22.14;53.28;99219.41;5088214;28;20106;-68
2022/08/02 04:11:33;;;;;;;5.97;3.70;;;;;;;21.58;53.28;99121.81;5088145;28;20110;-68
2022/08/02 04:14:07;;;;;;;4.00;3.22;;;;;;;22.07;53.94;99220.06;5088163;28;20052;-68
2022/08/02 04:16:41;;;;;;;4.50;3.45;;;;;;;22.05;53.91;99216.69;5088519;28;20309;-68
2022/08/02 04:19:10;;;;;;;4.07;3.10;;;;;;;21.69;54.09;99164.69;5088822;28;20090;-68
2022/08/02 04:21:41;;;;;;;9.68;6.40;;;;;;;22.02;54.09;99217.00;5088245;28;20122;-68
2022/08/02 04:24:10;;;;;;;8.85;6.43;;;;;;;22.03;54.60;99225.94;5087983;28;20087;-68
2022/08/02 04:26:38;;;;;;;6.78;5.32;;;;;;;22.01;54.41;99228.78;5088111;28;20057;-68
2022/08/02 04:29:07;;;;;;;9.18;7.32;;;;;;;22.01;54.62;99223.41;5087841;28;20048;-67
2022/08/02 04:31:35;;;;;;;7.53;5.55;;;;;;;22.01;55.20;99236.91;5088168;28;20064;-68
2022/08/02 04:34:03;;;;;;;4.47;3.55;;;;;;;22.02;55.18;99232.34;5088220;28;20266;-68
2022/08/02 04:36:31;;;;;;;5.82;4.10;;;;;;;22.05;55.13;99237.41;5087843;28;20056;-68
2022/08/02 04:38:58;;;;;;;3.33;2.70;;;;;;;22.08;54.67;99235.25;5087964;28;20328;-67
2022/08/02 04:41:37;;;;;;;9.95;2.50;;;;;;;22.01;55.15;99214.47;5088048;28;20060;-67
2022/08/02 04:44:06;;;;;;;3.67;2.20;;;;;;;22.08;54.78;99229.84;5087951;28;20056;-67
2022/08/02 04:46:33;;;;;;;3.20;2.10;;;;;;;22.13;54.54;99225.81;5087342;28;20117;-68
2022/08/02 04:49:00;;;;;;;4.57;3.28;;;;;;;22.07;54.96;99228.16;5070066;28;20078;-68
2022/08/02 04:51:28;;;;;;;4.00;3.38;;;;;;;22.13;54.77;99228.53;5087581;28;20094;-68
2022/08/02 04:53:55;;;;;;;6.25;4.38;;;;;;;22.10;54.96;99233.22;5087494;28;20086;-68
2022/08/02 04:56:22;;;;;;;5.53;3.42;;;;;;;22.09;54.48;99242.34;5087423;28;20082;-68
2022/08/02 04:58:49;;;;;;;3.67;2.70;;;;;;;22.13;54.50;99245.56;5087329;28;20052;-68
2022/08/02 05:01:18;;;;;;;3.65;2.53;;;;;;;22.14;54.53;99251.81;5087451;28;20117;-68
2022/08/02 05:03:45;;;;;;;2.88;2.10;;;;;;;22.09;54.46;99252.28;5087561;28;20068;-67
2022/08/02 05:06:12;;;;;;;3.63;2.20;;;;;;;22.12;54.45;99248.41;5087676;28;20254;-68
2022/08/02 05:08:39;;;;;;;3.35;2.25;;;;;;;22.05;54.73;99256.31;5086050;28;20098;-67
2022/08/02 05:11:07;;;;;;;2.78;1.75;;;;;;;21.96;54.60;99258.13;5087104;28;20062;-68
2022/08/02 05:13:34;;;;;;;2.70;1.95;;;;;;;22.01;54.64;99261.19;5087449;28;20057;-67
2022/08/02 05:16:03;;;;;;;3.63;2.17;;;;;;;22.04;54.73;99254.63;5086958;28;20102;-68
2022/08/02 05:18:31;;;;;;;3.17;1.77;;;;;;;22.04;55.00;99254.63;5087446;28;20090;-68
2022/08/02 05:20:59;;;;;;;4.43;2.03;;;;;;;21.59;54.49;99190.91;5087319;28;20118;-68
2022/08/02 05:23:26;;;;;;;3.75;1.83;;;;;;;21.95;54.63;99231.28;5086617;28;20053;-68
2022/08/02 05:25:54;;;;;;;2.88;2.13;;;;;;;22.10;55.31;99259.38;5087024;28;20064;-68
2022/08/02 05:28:22;;;;;;;4.97;2.58;;;;;;;22.18;54.88;99269.38;5086722;28;20056;-67
2022/08/02 05:30:49;;;;;;;5.13;2.20;;;;;;;22.17;55.11;99262.28;5086875;28;20052;-68
2022/08/02 05:33:17;;;;;;;3.15;1.92;;;;;;;22.14;55.38;99262.59;5087030;28;20040;-68
2022/08/02 05:35:45;;;;;;;2.70;1.88;;;;;;;22.16;55.10;99265.97;5086925;28;20305;-68
2022/08/02 05:38:12;;;;;;;3.47;1.70;;;;;;;22.21;54.87;99269.88;5086659;28;20186;-68
2022/08/02 05:40:40;;;;;;;2.78;1.77;;;;;;;22.25;55.23;99278.50;5086814;28;20052;-68
2022/08/02 05:43:12;;;;;;;4.00;2.00;;;;;;;22.33;55.92;99275.84;5086621;28;20126;-68
2022/08/02 05:45:39;;;;;;;3.72;2.20;;;;;;;22.33;55.62;99265.91;5086683;28;20056;-67
2022/08/02 05:48:07;;;;;;;3.10;2.13;;;;;;;22.16;55.46;99233.59;5086535;28;20121;-68
2022/08/02 05:50:39;;;;;;;3.47;2.67;;;;;;;22.45;55.50;99268.34;5085994;28;20110;-68
2022/08/02 05:53:19;;;;;;;3.38;2.70;;;;;;;22.48;55.74;99278.81;5086625;28;20056;-68
2022/08/02 05:55:51;;;;;;;4.13;3.15;;;;;;;22.51;55.45;99275.81;5086854;28;20090;-67
2022/08/02 05:58:24;;;;;;;5.68;2.90;;;;;;;22.18;55.13;99220.78;5086127;28;20093;-68
2022/08/02 06:00:55;;;;;;;3.08;2.05;;;;;;;22.61;54.93;99290.91;5086382;28;20255;-67
2022/08/02 06:03:25;;;;;;;4.30;3.53;;;;;;;22.59;55.27;99282.09;5085877;28;20056;-68
2022/08/02 06:05:59;;;;;;;7.35;3.10;;;;;;;21.82;54.94;99133.75;5086284;28;20109;-68
2022/08/02 06:08:33;;;;;;;3.90;2.83;;;;;;;22.73;55.26;99291.44;5086146;28;20255;-68
2022/08/02 06:11:02;;;;;;;3.17;2.30;;;;;;;22.73;54.91;99294.16;5085970;28;20236;-68
2022/08/02 06:13:29;;;;;;;3.67;2.25;;;;;;;22.82;54.90;99292.31;5085503;28;20064;-68
2022/08/02 06:15:58;;;;;;;3.78;2.63;;;;;;;22.87;54.72;99292.66;5085842;28;20114;-67
2022/08/02 06:18:27;;;;;;;3.33;2.10;;;;;;;22.92;54.12;99282.22;5085439;28;20206;-67
2022/08/02 06:20:57;;;;;;;2.95;2.25;;;;;;;22.98;54.24;99295.06;5085576;28;20036;-67
2022/08/02 06:23:26;;;;;;;3.33;2.42;;;;;;;23.04;54.29;99299.81;5085620;28;20102;-67
2022/08/02 06:25:57;;;;;;;3.90;2.80;;;;;;;23.10;54.36;99304.56;5085430;28;20166;-67
2022/08/02 06:28:26;;;;;;;3.70;2.88;;;;;;;22.71;54.15;99234.03;5084857;28;20053;-67
2022/08/02 06:30:55;;;;;;;3.00;2.17;;;;;;;23.16;53.78;99300.34;5085184;28;20060;-67
2022/08/02 06:33:23;;;;;;;3.38;2.45;;;;;;;23.19;53.59;99308.97;5085377;28;20057;-67
2022/08/02 06:36:00;;;;;;;4.75;2.28;;;;;;;23.21;53.83;99308.81;5085388;28;20317;-66
2022/08/02 06:38:33;;;;;;;3.30;2.10;;;;;;;23.24;53.78;99305.75;5085674;28;20052;-67
2022/08/02 06:41:06;;;;;;;3.60;2.28;;;;;;;23.25;53.76;99308.31;5085257;28;20264;-67
2022/08/02 06:43:42;;;;;;;3.50;2.05;;;;;;;23.26;54.30;99317.25;5085258;28;20064;-67
2022/08/02 06:46:09;;;;;;;3.97;2.60;;;;;;;23.26;53.99;99312.72;5085078;28;20058;-67
2022/08/02 06:48:37;;;;;;;3.35;2.47;;;;;;;23.26;53.91;99320.84;5085299;28;20109;-67
2022/08/02 06:51:05;;;;;;;3.33;2.75;;;;;;;22.90;53.90;99257.22;5084988;28;20324;-66
2022/08/02 06:53:32;;;;;;;3.05;2.30;;;;;;;23.13;53.78;99304.22;5085329;28;20048;-67
2022/08/02 06:56:00;;;;;;;5.10;2.75;;;;;;;23.26;54.02;99330.78;5085233;28;20056;-67
2022/08/02 06:58:28;;;;;;;2.97;2.20;;;;;;;23.28;54.22;99324.22;5085290;28;20223;-67
2022/08/02 07:00:56;;;;;;;4.72;2.50;;;;;;;23.29;53.97;99327.78;5085148;28;20052;-67
2022/08/02 07:03:24;;;;;;;4.50;2.17;;;;;;;23.28;54.31;99326.06;5085264;28;20056;-67
2022/08/02 07:05:52;;;;;;;3.92;2.53;;;;;;;22.89;54.40;99271.75;5084908;28;20056;-67
2022/08/02 07:08:19;;;;;;;3.47;2.83;;;;;;;23.26;54.31;99328.06;5084645;28;20106;-67
2022/08/02 07:10:47;;;;;;;4.45;2.50;;;;;;;23.15;54.23;99315.72;5085062;28;20064;-67
2022/08/02 07:13:14;;;;;;;3.78;2.75;;;;;;;23.03;54.05;99307.06;5084828;28;20060;-67
2022/08/02 07:15:43;;;;;;;4.30;3.08;;;;;;;23.23;54.47;99341.91;5084881;28;20106;-67
2022/08/02 07:18:13;;;;;;;5.95;3.63;;;;;;;23.24;54.54;99341.75;5084631;28;20056;-67
2022/08/02 07:20:41;;;;;;;2.83;2.25;;;;;;;23.27;54.21;99333.34;5085109;28;20274;-67
2022/08/02 07:23:08;;;;;;;6.15;3.47;;;;;;;23.27;54.17;99341.47;5084887;28;20102;-67
2022/08/02 07:25:36;;;;;;;3.67;2.67;;;;;;;23.28;54.10;99340.44;5084923;28;20382;-67
2022/08/02 07:28:03;;;;;;;3.45;2.67;;;;;;;23.30;54.20;99342.97;5084370;28;20117;-67
2022/08/02 07:30:31;;;;;;;3.70;3.08;;;;;;;23.30;53.99;99337.56;5084490;28;20060;-67
2022/08/02 07:33:00;;;;;;;4.00;3.10;;;;;;;23.34;53.99;99345.19;5088761;28;20109;-67
2022/08/02 07:35:27;;;;;;;3.22;2.50;;;;;;;23.36;54.18;99350.44;5088855;28;20064;-67
2022/08/02 07:37:55;;;;;;;3.33;2.67;;;;;;;23.27;54.14;99341.47;5088420;28;20082;-67
2022/08/02 07:40:23;;;;;;;4.30;2.45;;;;;;;23.30;54.12;99362.75;5089047;28;20087;-67
2022/08/02 07:42:52;;;;;;;4.65;2.20;;;;;;;23.13;54.20;99335.81;5088729;28;20056;-67
2022/08/02 07:45:21;;;;;;;2.83;2.05;;;;;;;23.23;54.31;99361.69;5088413;28;20056;-67
2022/08/02 07:47:48;;;;;;;6.40;2.13;;;;;;;23.20;54.44;99364.72;5088177;28;20056;-67
2022/08/02 07:50:19;;;;;;;3.33;2.17;;;;;;;23.15;54.37;99347.31;5087934;28;20051;-67
2022/08/02 07:52:48;;;;;;;2.67;1.95;;;;;;;23.29;54.21;99352.94;5088586;28;20052;-67
2022/08/02 07:55:17;;;;;;;3.63;2.20;;;;;;;23.31;54.20;99353.63;5088302;28;20258;-67
2022/08/02 07:57:46;;;;;;;3.92;2.40;;;;;;;23.28;54.18;99343.16;5088063;28;20413;-67
2022/08/02 08:00:15;;;;;;;3.78;2.40;;;;;;;23.30;54.30;99341.13;5088830;28;20265;-68
2022/08/02 08:02:43;;;;;;;4.03;2.47;;;;;;;23.16;54.28;99328.22;5088109;28;20083;-67
2022/08/02 08:05:11;;;;;;;5.90;2.63;;;;;;;23.35;54.38;99341.47;5088200;28;20064;-67
2022/08/02 08:07:40;;;;;;;2.92;2.00;;;;;;;23.36;54.16;99348.56;5088399;28;20078;-67
2022/08/02 08:10:08;;;;;;;5.60;2.45;;;;;;;23.36;54.48;99345.88;5087973;28;20090;-67
2022/08/02 08:12:36;;;;;;;4.80;2.60;;;;;;;23.30;54.49;99354.66;5088014;28;20258;-67
2022/08/02 08:15:04;;;;;;;3.65;2.45;;;;;;;23.26;54.43;99353.28;5088510;28;20052;-67
2022/08/02 08:17:31;;;;;;;3.20;2.38;;;;;;;23.21;54.32;99352.91;5088209;28;20098;-66
2022/08/02 08:19:59;;;;;;;2.90;2.08;;;;;;;23.22;54.48;99351.03;5087484;28;20304;-67
2022/08/02 08:22:26;;;;;;;2.58;1.98;;;;;;;23.25;54.49;99365.06;5087893;28;20056;-67
2022/08/02 08:24:54;;;;;;;3.38;2.40;;;;;;;23.28;54.53;99355.81;5087790;28;20053;-67
2022/08/02 08:27:22;;;;;;;4.30;2.50;;;;;;;22.74;54.56;99263.41;5087544;28;20086;-67
2022/08/02 08:29:49;;;;;;;2.65;2.13;;;;;;;23.30;54.26;99346.53;5087535;28;20122;-67
2022/08/02 08:32:18;;;;;;;3.58;2.45;;;;;;;23.39;54.53;99362.78;5087294;28;20052;-67
2022/08/02 08:34:45;;;;;;;3.38;2.42;;;;;;;23.32;54.47;99370.69;5087300;28;20057;-67
2022/08/02 08:37:12;;;;;;;5.72;2.25;;;;;;;23.26;54.53;99347.88;5087657;28;20060;-67
2022/08/02 08:39:39;;;;;;;2.83;2.05;;;;;;;23.45;54.49;99359.41;5087709;28;20126;-67
2022/08/02 08:42:09;;;;;;;2.75;2.05;;;;;;;23.33;54.61;99343.50;5087410;28;20114;-67
2022/08/02 08:44:36;;;;;;;3.67;2.58;;;;;;;23.51;54.39;99415.53;5087225;28;20048;-67
2022/08/02 08:47:05;;;;;;;3.72;2.42;;;;;;;23.53;54.37;99354.84;5087118;28;20266;-67
2022/08/02 08:49:37;;;;;;;3.47;2.47;;;;;;;23.60;54.61;99364.00;5087288;28;20052;-67
2022/08/02 08:52:06;;;;;;;3.67;2.90;;;;;;;23.65;54.43;99361.63;5087050;28;20056;-67
2022/08/02 08:54:35;;;;;;;4.10;2.83;;;;;;;23.73;54.31;99370.75;5087528;28;20117;-67
2022/08/02 08:57:05;;;;;;;3.20;2.42;;;;;;;23.35;54.00;99310.88;5087715;28;20040;-67
2022/08/02 08:59:34;;;;;;;3.15;2.40;;;;;;;23.82;54.23;99361.63;5069784;28;20060;-67
2022/08/02 09:02:02;;;;;;;2.88;2.30;;;;;;;23.65;53.97;99331.88;5087381;28;20056;-67
2022/08/02 09:04:30;;;;;;;3.13;2.40;;;;;;;24.01;53.67;99355.91;5087315;28;20052;-67
2022/08/02 09:06:57;;;;;;;3.15;2.42;;;;;;;24.11;53.38;99366.56;5086834;28;20114;-67
2022/08/02 09:09:24;;;;;;;3.13;2.50;;;;;;;23.49;53.18;99253.41;5086554;28;20259;-67
2022/08/02 09:11:52;;;;;;;3.38;2.40;;;;;;;24.30;53.26;99352.66;5086824;28;20056;-67
2022/08/02 09:14:27;;;;;;;4.32;2.75;;;;;;;24.57;53.20;99356.81;5086549;28;20320;-67
2022/08/02 09:17:07;;;;;;;4.32;2.40;;;;;;;24.80;52.17;99352.34;5086421;28;20113;-67
2022/08/02 09:19:35;;;;;;;2.97;2.25;;;;;;;24.44;51.59;99270.69;5086752;28;20049;-67
2022/08/02 09:22:05;;;;;;;10.88;2.80;;;;;;;25.12;51.46;99345.97;5086792;28;20056;-68
2022/08/02 09:24:42;;;;;;;3.00;2.45;;;;;;;25.38;50.73;99339.41;5087001;28;20106;-68
2022/08/02 09:27:11;;;;;;;3.30;2.35;;;;;;;25.61;50.52;99332.09;5087277;28;20296;-67
2022/08/02 09:29:39;;;;;;;2.97;2.30;;;;;;;25.02;49.91;99234.19;5086759;28;20044;-68
2022/08/02 09:32:07;;;;;;;4.28;2.33;;;;;;;25.96;48.82;99329.78;5086830;28;20048;-68
2022/08/02 09:34:45;;;;;;;2.85;2.17;;;;;;;25.77;48.43;99269.53;5086870;28;20061;-68
2022/08/02 09:37:23;;;;;;;2.90;2.20;;;;;;;26.08;47.54;99298.47;5086829;28;20110;-68
2022/08/02 09:39:50;;;;;;;3.42;2.50;;;;;;;26.39;47.81;99315.44;5086982;28;20052;-68
2022/08/02 09:42:17;;;;;;;3.00;2.35;;;;;;;26.20;47.28;99256.25;5069364;28;20121;-68
2022/08/02 09:44:53;;;;;;;3.53;2.42;;;;;;;26.79;46.80;99321.47;5086348;28;20106;-68
2022/08/02 09:47:23;;;;;;;3.05;2.13;;;;;;;26.90;46.08;99312.81;5086280;28;20297;-68
2022/08/02 09:49:50;;;;;;;3.20;2.38;;;;;;;26.53;46.85;99249.38;5085670;28;20056;-68
2022/08/02 09:52:23;;;;;;;4.05;2.13;;;;;;;26.79;46.45;99297.00;5086034;28;20056;-68
2022/08/02 09:54:50;;;;;;;3.00;1.95;;;;;;;26.83;46.35;99292.84;5086019;28;20063;-68
2022/08/02 09:57:26;;;;;;;3.60;2.10;;;;;;;27.11;45.40;99309.28;5086240;28;20305;-68
2022/08/02 09:59:56;;;;;;;3.55;2.35;;;;;;;27.03;45.90;99314.84;5085912;28;20056;-68
2022/08/02 10:02:25;;;;;;;3.20;2.10;;;;;;;26.82;46.29;99285.72;5086059;28;20115;-68
2022/08/02 10:04:52;;;;;;;2.78;1.88;;;;;;;24.83;46.32;98955.47;5085771;28;20056;-68
2022/08/02 10:07:20;;;;;;;3.75;2.08;;;;;;;25.86;45.91;99159.00;5085979;28;20060;-68
2022/08/02 10:09:48;;;;;;;2.97;2.13;;;;;;;26.76;46.28;99298.22;5085460;28;20056;-68
2022/08/02 10:12:16;;;;;;;2.50;1.80;;;;;;;26.73;46.37;99308.63;5086069;28;20052;-68
2022/08/02 10:14:45;;;;;;;2.78;2.08;;;;;;;26.69;46.45;99304.59;5086039;28;20056;-68
2022/08/02 10:17:13;;;;;;;2.88;1.90;;;;;;;26.06;46.64;99211.75;5085806;28;20349;-67
2022/08/02 10:19:44;;;;;;;2.78;2.08;;;;;;;26.35;45.94;99264.38;5086131;28;20072;-68
2022/08/02 10:22:13;;;;;;;4.47;2.13;;;;;;;26.51;46.43;99297.66;5086078;28;20110;-68
2022/08/02 10:24:42;;;;;;;3.78;1.95;;;;;;;26.59;46.24;99295.84;5085789;28;20312;-68
2022/08/02 10:27:16;;;;;;;2.33;1.80;;;;;;;26.67;45.81;99295.78;5085069;28;20109;-68
2022/08/02 10:29:47;;;;;;;3.90;2.50;;;;;;;26.80;46.17;99293.25;5085520;28;20052;-68
2022/08/02 10:32:21;;;;;;;3.10;2.10;;;;;;;26.86;45.78;99289.75;5085323;28;20247;-68
2022/08/02 10:34:55;;;;;;;2.92;2.30;;;;;;;26.84;44.75;99287.22;5085553;28;20056;-68
2022/08/02 10:37:28;;;;;;;3.10;2.20;;;;;;;26.88;45.35;99282.25;5086255;28;20086;-68
2022/08/02 10:39:57;;;;;;;3.47;2.38;;;;;;;27.00;45.67;99280.72;5085559;28;20255;-68
2022/08/02 10:42:45;;;;;;;3.25;2.30;;;;;;;27.19;44.37;99279.25;5085449;28;20110;-68
2022/08/02 10:45:15;;;;;;;3.35;2.45;;;;;;;27.37;45.12;99273.41;5085698;28;20102;-68
2022/08/02 10:47:57;;;;;;;3.35;2.33;;;;;;;27.49;43.55;99277.28;5067871;28;20113;-67
2022/08/02 10:51:02;;;;;;;8.15;3.38;;;;;;;27.68;43.52;99278.53;5085549;28;20048;-68
2022/08/02 10:53:32;;;;;;;3.30;2.22;;;;;;;27.86;43.10;99275.34;5081240;28;20078;-68
2022/08/02 10:56:02;;;;;;;3.80;2.03;;;;;;;25.69;42.91;98902.41;5085447;28;20296;-68
2022/08/02 10:58:31;;;;;;;2.50;1.70;;;;;;;28.02;42.55;99272.34;5084981;28;20060;-68
2022/08/02 11:01:03;;;;;;;2.92;1.98;;;;;;;27.79;42.45;99232.53;5084774;28;20048;-67
2022/08/02 11:03:39;;;;;;;3.65;2.10;;;;;;;27.76;41.98;99203.00;5085376;28;20150;-68
2022/08/02 11:06:08;;;;;;;2.47;1.63;;;;;;;28.27;42.39;99268.09;5084253;28;20118;-68
2022/08/02 11:08:37;;;;;;;3.70;2.30;;;;;;;27.92;41.12;99212.78;5084930;28;20255;-68
2022/08/02 11:11:17;;;;;;;3.42;1.80;;;;;;;28.15;40.65;99253.34;5084837;28;20049;-68
2022/08/02 11:14:00;;;;;;;2.55;1.80;;;;;;;28.06;41.09;99260.84;5085099;28;20094;-68
2022/08/02 11:17:07;;;;;;;2.70;2.15;;;;;;;28.04;40.47;99256.63;5084911;28;20056;-68
2022/08/02 11:19:35;;;;;;;3.47;2.20;;;;;;;28.20;42.15;99253.59;5070032;28;20068;-68
2022/08/02 11:22:05;;;;;;;2.85;1.88;;;;;;;28.29;43.54;99254.28;5085009;28;20056;-68
2022/08/02 11:24:35;;;;;;;2.67;1.80;;;;;;;28.32;44.74;99256.59;5084652;28;20271;-68
2022/08/02 11:27:04;;;;;;;3.42;1.83;;;;;;;28.22;44.50;99231.59;5084452;28;20060;-68
2022/08/02 11:29:33;;;;;;;3.65;1.98;;;;;;;28.33;44.69;99247.38;5084533;28;20057;-68
2022/08/02 11:32:00;;;;;;;4.03;1.90;;;;;;;28.31;44.56;99233.13;5084424;28;20118;-69
2022/08/02 11:34:28;;;;;;;6.53;2.35;;;;;;;28.35;43.60;99240.69;5084197;28;20105;-69
2022/08/02 11:36:56;;;;;;;3.88;1.80;;;;;;;28.19;43.41;99219.22;5084223;28;20117;-68
2022/08/02 11:39:24;;;;;;;2.78;1.55;;;;;;;28.24;43.33;99235.81;5084728;28;20110;-68
2022/08/02 11:41:55;;;;;;;2.50;1.80;;;;;;;28.20;43.16;99206.44;5084759;28;20121;-69
2022/08/02 11:44:23;;;;;;;2.40;1.50;;;;;;;28.21;42.55;99200.78;5084413;28;20379;-68
2022/08/02 11:46:54;;;;;;;2.90;1.67;;;;;;;28.35;41.25;99231.66;5084379;28;20053;-68
2022/08/02 11:49:22;;;;;;;2.80;1.90;;;;;;;28.17;42.86;99204.13;5084024;28;20251;-68
2022/08/02 11:51:59;;;;;;;2.15;1.50;;;;;;;28.28;42.80;99217.16;5084765;28;20263;-68